sensor_id;sensor_type;location;lat;lon;timestamp;P1;durP1;ratioP1;P2;durP2;ratioP2
5521;SDS011;2783;48.730;8.006;2023-11-22T00:00:14;0.77;;;0.77;;
5521;SDS011;2783;48.730;8.006;2023-11-22T00:02:40;0.60;;;0.60;;
5521;SDS011;2783;48.730;8.006;2023-11-22T00:05:05;0.80;;;0.80;;
5521;SDS011;2783;48.730;8.006;2023-11-22T00:07:34;0.70;;;0.70;;
5521;SDS011;2783;48.730;8.006;2023-11-22T00:09:59;0.80;;;0.80;;
5521;SDS011;2783;48.730;8.006;2023-11-22T00:12:26;0.80;;;0.80;;
5521;SDS011;2783;48.730;8.006;2023-11-22T00:14:52;0.70;;;0.70;;
5521;SDS011;2783;48.730;8.006;2023-11-22T00:17:18;0.70;;;0.70;;
5521;SDS011;2783;48.730;8.006;2023-11-22T00:19:44;0.70;;;0.70;;
5521;SDS011;2783;48.730;8.006;2023-11-22T00:22:10;0.80;;;0.80;;
5521;SDS011;2783;48.730;8.006;2023-11-22T00:24:40;0.90;;;0.90;;
5521;SDS011;2783;48.730;8.006;2023-11-22T00:27:06;0.80;;;0.80;;
5521;SDS011;2783;48.730;8.006;2023-11-22T00:29:32;0.70;;;0.70;;
5521;SDS011;2783;48.730;8.006;2023-11-22T00:31:57;0.80;;;0.80;;
5521;SDS011;2783;48.730;8.006;2023-11-22T00:34:23;0.70;;;0.70;;
5521;SDS011;2783;48.730;8.006;2023-11-22T00:36:49;0.63;;;0.63;;
5521;SDS011;2783;48.730;8.006;2023-11-22T00:39:16;0.68;;;0.68;;
5521;SDS011;2783;48.730;8.006;2023-11-22T00:41:41;0.73;;;0.73;;
5521;SDS011;2783;48.730;8.006;2023-11-22T00:44:07;0.90;;;0.90;;
5521;SDS011;2783;48.730;8.006;2023-11-22T00:46:32;0.70;;;0.70;;
5521;SDS011;2783;48.730;8.006;2023-11-22T00:48:58;0.65;;;0.65;;
5521;SDS011;2783;48.730;8.006;2023-11-22T00:51:23;0.80;;;0.80;;
5521;SDS011;2783;48.730;8.006;2023-11-22T00:53:49;0.80;;;0.80;;
5521;SDS011;2783;48.730;8.006;2023-11-22T00:56:15;0.80;;;0.80;;
5521;SDS011;2783;48.730;8.006;2023-11-22T00:58:40;0.80;;;0.80;;
5521;SDS011;2783;48.730;8.006;2023-11-22T01:01:06;0.80;;;0.80;;
5521;SDS011;2783;48.730;8.006;2023-11-22T01:03:31;0.80;;;0.80;;
5521;SDS011;2783;48.730;8.006;2023-11-22T01:05:57;0.77;;;0.77;;
5521;SDS011;2783;48.730;8.006;2023-11-22T01:08:23;0.80;;;0.80;;
5521;SDS011;2783;48.730;8.006;2023-11-22T01:10:48;0.70;;;0.70;;
5521;SDS011;2783;48.730;8.006;2023-11-22T01:13:14;0.80;;;0.80;;
5521;SDS011;2783;48.730;8.006;2023-11-22T01:15:40;0.70;;;0.70;;
5521;SDS011;2783;48.730;8.006;2023-11-22T01:18:06;0.77;;;0.77;;
5521;SDS011;2783;48.730;8.006;2023-11-22T01:20:32;0.60;;;0.60;;
5521;SDS011;2783;48.730;8.006;2023-11-22T01:22:57;0.77;;;0.77;;
5521;SDS011;2783;48.730;8.006;2023-11-22T01:25:22;0.80;;;0.80;;
5521;SDS011;2783;48.730;8.006;2023-11-22T01:27:48;0.80;;;0.80;;
5521;SDS011;2783;48.730;8.006;2023-11-22T01:30:13;0.70;;;0.70;;
5521;SDS011;2783;48.730;8.006;2023-11-22T01:32:39;0.70;;;0.70;;
5521;SDS011;2783;48.730;8.006;2023-11-22T01:35:05;0.70;;;0.70;;
5521;SDS011;2783;48.730;8.006;2023-11-22T01:37:31;0.80;;;0.80;;
5521;SDS011;2783;48.730;8.006;2023-11-22T01:39:57;0.80;;;0.80;;
5521;SDS011;2783;48.730;8.006;2023-11-22T01:42:23;0.90;;;0.90;;
5521;SDS011;2783;48.730;8.006;2023-11-22T01:44:50;0.73;;;0.73;;
5521;SDS011;2783;48.730;8.006;2023-11-22T01:47:16;0.77;;;0.77;;
5521;SDS011;2783;48.730;8.006;2023-11-22T01:49:42;0.80;;;0.80;;
5521;SDS011;2783;48.730;8.006;2023-11-22T01:52:08;0.80;;;0.80;;
5521;SDS011;2783;48.730;8.006;2023-11-22T01:54:34;0.70;;;0.70;;
5521;SDS011;2783;48.730;8.006;2023-11-22T01:56:59;0.85;;;0.85;;
5521;SDS011;2783;48.730;8.006;2023-11-22T01:59:26;0.70;;;0.70;;
5521;SDS011;2783;48.730;8.006;2023-11-22T02:01:55;0.90;;;0.90;;
5521;SDS011;2783;48.730;8.006;2023-11-22T02:04:21;0.80;;;0.80;;
5521;SDS011;2783;48.730;8.006;2023-11-22T02:06:47;0.73;;;0.73;;
5521;SDS011;2783;48.730;8.006;2023-11-22T02:09:12;0.90;;;0.90;;
5521;SDS011;2783;48.730;8.006;2023-11-22T02:11:42;0.73;;;0.73;;
5521;SDS011;2783;48.730;8.006;2023-11-22T02:14:10;0.80;;;0.80;;
5521;SDS011;2783;48.730;8.006;2023-11-22T02:16:36;0.80;;;0.80;;
5521;SDS011;2783;48.730;8.006;2023-11-22T02:19:03;0.80;;;0.80;;
5521;SDS011;2783;48.730;8.006;2023-11-22T02:21:32;0.50;;;0.50;;
5521;SDS011;2783;48.730;8.006;2023-11-22T02:24:00;0.80;;;0.80;;
5521;SDS011;2783;48.730;8.006;2023-11-22T02:26:26;0.70;;;0.70;;
5521;SDS011;2783;48.730;8.006;2023-11-22T02:28:52;0.60;;;0.60;;
5521;SDS011;2783;48.730;8.006;2023-11-22T02:31:18;0.90;;;0.90;;
5521;SDS011;2783;48.730;8.006;2023-11-22T02:33:43;0.80;;;0.80;;
5521;SDS011;2783;48.730;8.006;2023-11-22T02:36:09;0.70;;;0.70;;
5521;SDS011;2783;48.730;8.006;2023-11-22T02:38:37;0.80;;;0.80;;
5521;SDS011;2783;48.730;8.006;2023-11-22T02:41:03;0.80;;;0.80;;
5521;SDS011;2783;48.730;8.006;2023-11-22T02:43:29;0.80;;;0.80;;
5521;SDS011;2783;48.730;8.006;2023-11-22T02:45:55;0.70;;;0.70;;
5521;SDS011;2783;48.730;8.006;2023-11-22T02:48:20;0.80;;;0.80;;
5521;SDS011;2783;48.730;8.006;2023-11-22T02:50:46;0.75;;;0.75;;
5521;SDS011;2783;48.730;8.006;2023-11-22T02:53:11;0.75;;;0.75;;
5521;SDS011;2783;48.730;8.006;2023-11-22T02:55:37;0.85;;;0.85;;
5521;SDS011;2783;48.730;8.006;2023-11-22T02:58:02;0.90;;;0.90;;
5521;SDS011;2783;48.730;8.006;2023-11-22T03:00:28;0.80;;;0.80;;
5521;SDS011;2783;48.730;8.006;2023-11-22T03:02:54;0.80;;;0.80;;
5521;SDS011;2783;48.730;8.006;2023-11-22T03:05:21;0.80;;;0.80;;
5521;SDS011;2783;48.730;8.006;2023-11-22T03:07:47;0.80;;;0.80;;
5521;SDS011;2783;48.730;8.006;2023-11-22T03:10:13;0.68;;;0.68;;
5521;SDS011;2783;48.730;8.006;2023-11-22T03:12:44;0.80;;;0.80;;
5521;SDS011;2783;48.730;8.006;2023-11-22T03:15:10;0.85;;;0.85;;
5521;SDS011;2783;48.730;8.006;2023-11-22T03:17:36;0.80;;;0.80;;
5521;SDS011;2783;48.730;8.006;2023-11-22T03:20:03;0.77;;;0.77;;
5521;SDS011;2783;48.730;8.006;2023-11-22T03:22:33;0.80;;;0.80;;
5521;SDS011;2783;48.730;8.006;2023-11-22T03:25:01;0.70;;;0.70;;
5521;SDS011;2783;48.730;8.006;2023-11-22T03:27:28;0.80;;;0.80;;
5521;SDS011;2783;48.730;8.006;2023-11-22T03:29:54;0.80;;;0.80;;
5521;SDS011;2783;48.730;8.006;2023-11-22T03:32:19;0.88;;;0.88;;
5521;SDS011;2783;48.730;8.006;2023-11-22T03:34:45;0.70;;;0.70;;
5521;SDS011;2783;48.730;8.006;2023-11-22T03:37:10;0.90;;;0.90;;
5521;SDS011;2783;48.730;8.006;2023-11-22T03:39:36;0.80;;;0.80;;
5521;SDS011;2783;48.730;8.006;2023-11-22T03:42:02;0.80;;;0.80;;
5521;SDS011;2783;48.730;8.006;2023-11-22T03:44:28;0.80;;;0.80;;
5521;SDS011;2783;48.730;8.006;2023-11-22T03:46:55;0.70;;;0.70;;
5521;SDS011;2783;48.730;8.006;2023-11-22T03:49:20;0.70;;;0.70;;
5521;SDS011;2783;48.730;8.006;2023-11-22T03:51:46;0.80;;;0.80;;
5521;SDS011;2783;48.730;8.006;2023-11-22T03:54:12;0.52;;;0.52;;
5521;SDS011;2783;48.730;8.006;2023-11-22T03:56:38;0.90;;;0.90;;
5521;SDS011;2783;48.730;8.006;2023-11-22T03:59:04;0.80;;;0.80;;
5521;SDS011;2783;48.730;8.006;2023-11-22T04:01:29;0.70;;;0.70;;
5521;SDS011;2783;48.730;8.006;2023-11-22T04:03:55;0.82;;;0.82;;
5521;SDS011;2783;48.730;8.006;2023-11-22T04:06:21;0.88;;;0.88;;
5521;SDS011;2783;48.730;8.006;2023-11-22T04:08:48;0.80;;;0.80;;
5521;SDS011;2783;48.730;8.006;2023-11-22T04:11:13;0.90;;;0.90;;
5521;SDS011;2783;48.730;8.006;2023-11-22T04:13:40;0.90;;;0.90;;
5521;SDS011;2783;48.730;8.006;2023-11-22T04:16:06;0.70;;;0.70;;
5521;SDS011;2783;48.730;8.006;2023-11-22T04:18:34;0.73;;;0.73;;
5521;SDS011;2783;48.730;8.006;2023-11-22T04:21:00;0.80;;;0.80;;
5521;SDS011;2783;48.730;8.006;2023-11-22T04:23:28;0.73;;;0.73;;
5521;SDS011;2783;48.730;8.006;2023-11-22T04:25:53;0.80;;;0.80;;
5521;SDS011;2783;48.730;8.006;2023-11-22T04:28:19;0.85;;;0.85;;
5521;SDS011;2783;48.730;8.006;2023-11-22T04:30:44;0.80;;;0.80;;
5521;SDS011;2783;48.730;8.006;2023-11-22T04:33:09;0.90;;;0.90;;
5521;SDS011;2783;48.730;8.006;2023-11-22T04:35:35;0.90;;;0.90;;
5521;SDS011;2783;48.730;8.006;2023-11-22T04:38:03;0.90;;;0.90;;
5521;SDS011;2783;48.730;8.006;2023-11-22T04:40:29;0.90;;;0.90;;
5521;SDS011;2783;48.730;8.006;2023-11-22T04:42:55;0.85;;;0.85;;
5521;SDS011;2783;48.730;8.006;2023-11-22T04:45:20;1.00;;;1.00;;
5521;SDS011;2783;48.730;8.006;2023-11-22T04:47:46;0.80;;;0.80;;
5521;SDS011;2783;48.730;8.006;2023-11-22T04:50:11;0.70;;;0.70;;
5521;SDS011;2783;48.730;8.006;2023-11-22T04:52:37;0.85;;;0.85;;
5521;SDS011;2783;48.730;8.006;2023-11-22T04:55:02;0.70;;;0.70;;
5521;SDS011;2783;48.730;8.006;2023-11-22T04:57:29;0.82;;;0.82;;
5521;SDS011;2783;48.730;8.006;2023-11-22T04:59:55;0.80;;;0.80;;
5521;SDS011;2783;48.730;8.006;2023-11-22T05:02:20;0.77;;;0.77;;
5521;SDS011;2783;48.730;8.006;2023-11-22T05:04:45;0.88;;;0.88;;
5521;SDS011;2783;48.730;8.006;2023-11-22T05:07:14;0.90;;;0.90;;
5521;SDS011;2783;48.730;8.006;2023-11-22T05:09:40;0.80;;;0.80;;
5521;SDS011;2783;48.730;8.006;2023-11-22T05:12:07;0.90;;;0.90;;
5521;SDS011;2783;48.730;8.006;2023-11-22T05:14:32;0.90;;;0.90;;
5521;SDS011;2783;48.730;8.006;2023-11-22T05:16:57;0.70;;;0.70;;
5521;SDS011;2783;48.730;8.006;2023-11-22T05:19:24;0.80;;;0.80;;
5521;SDS011;2783;48.730;8.006;2023-11-22T05:21:49;0.80;;;0.80;;
5521;SDS011;2783;48.730;8.006;2023-11-22T05:24:14;0.90;;;0.90;;
5521;SDS011;2783;48.730;8.006;2023-11-22T05:26:40;0.70;;;0.70;;
5521;SDS011;2783;48.730;8.006;2023-11-22T05:29:05;0.90;;;0.90;;
5521;SDS011;2783;48.730;8.006;2023-11-22T05:31:31;0.90;;;0.90;;
5521;SDS011;2783;48.730;8.006;2023-11-22T05:33:56;0.90;;;0.90;;
5521;SDS011;2783;48.730;8.006;2023-11-22T05:36:22;0.73;;;0.73;;
5521;SDS011;2783;48.730;8.006;2023-11-22T05:38:47;0.80;;;0.80;;
5521;SDS011;2783;48.730;8.006;2023-11-22T05:41:13;1.00;;;1.00;;
5521;SDS011;2783;48.730;8.006;2023-11-22T05:43:38;0.90;;;0.90;;
5521;SDS011;2783;48.730;8.006;2023-11-22T05:46:04;0.77;;;0.77;;
5521;SDS011;2783;48.730;8.006;2023-11-22T05:48:30;0.73;;;0.73;;
5521;SDS011;2783;48.730;8.006;2023-11-22T05:50:55;1.00;;;1.00;;
5521;SDS011;2783;48.730;8.006;2023-11-22T05:53:21;0.82;;;0.82;;
5521;SDS011;2783;48.730;8.006;2023-11-22T05:55:49;1.00;;;1.00;;
5521;SDS011;2783;48.730;8.006;2023-11-22T05:58:15;0.82;;;0.82;;
5521;SDS011;2783;48.730;8.006;2023-11-22T06:00:50;0.90;;;0.90;;
5521;SDS011;2783;48.730;8.006;2023-11-22T06:03:15;0.88;;;0.88;;
5521;SDS011;2783;48.730;8.006;2023-11-22T06:05:41;0.90;;;0.90;;
5521;SDS011;2783;48.730;8.006;2023-11-22T06:08:06;0.80;;;0.80;;
5521;SDS011;2783;48.730;8.006;2023-11-22T06:10:32;0.80;;;0.80;;
5521;SDS011;2783;48.730;8.006;2023-11-22T06:12:57;0.88;;;0.88;;
5521;SDS011;2783;48.730;8.006;2023-11-22T06:15:23;1.00;;;1.00;;
5521;SDS011;2783;48.730;8.006;2023-11-22T06:17:48;1.00;;;1.00;;
5521;SDS011;2783;48.730;8.006;2023-11-22T06:20:14;0.90;;;0.90;;
5521;SDS011;2783;48.730;8.006;2023-11-22T06:22:40;1.00;;;1.00;;
5521;SDS011;2783;48.730;8.006;2023-11-22T06:25:10;0.90;;;0.90;;
5521;SDS011;2783;48.730;8.006;2023-11-22T06:27:38;0.95;;;0.95;;
5521;SDS011;2783;48.730;8.006;2023-11-22T06:30:05;0.98;;;0.98;;
5521;SDS011;2783;48.730;8.006;2023-11-22T06:32:37;0.90;;;0.90;;
5521;SDS011;2783;48.730;8.006;2023-11-22T06:35:02;1.00;;;1.00;;
5521;SDS011;2783;48.730;8.006;2023-11-22T06:37:28;1.00;;;1.00;;
5521;SDS011;2783;48.730;8.006;2023-11-22T06:39:53;1.00;;;1.00;;
5521;SDS011;2783;48.730;8.006;2023-11-22T06:42:19;0.90;;;0.90;;
5521;SDS011;2783;48.730;8.006;2023-11-22T06:44:47;0.98;;;0.98;;
5521;SDS011;2783;48.730;8.006;2023-11-22T06:47:17;1.00;;;1.00;;
5521;SDS011;2783;48.730;8.006;2023-11-22T06:49:43;0.95;;;0.95;;
5521;SDS011;2783;48.730;8.006;2023-11-22T06:52:09;1.00;;;1.00;;
5521;SDS011;2783;48.730;8.006;2023-11-22T06:54:34;0.77;;;0.77;;
5521;SDS011;2783;48.730;8.006;2023-11-22T06:57:01;0.95;;;0.95;;
5521;SDS011;2783;48.730;8.006;2023-11-22T06:59:28;0.93;;;0.93;;
5521;SDS011;2783;48.730;8.006;2023-11-22T07:01:53;0.90;;;0.90;;
5521;SDS011;2783;48.730;8.006;2023-11-22T07:04:20;0.90;;;0.90;;
5521;SDS011;2783;48.730;8.006;2023-11-22T07:06:46;0.80;;;0.80;;
5521;SDS011;2783;48.730;8.006;2023-11-22T07:09:12;1.00;;;1.00;;
5521;SDS011;2783;48.730;8.006;2023-11-22T07:11:38;1.00;;;1.00;;
5521;SDS011;2783;48.730;8.006;2023-11-22T07:14:04;0.90;;;0.90;;
5521;SDS011;2783;48.730;8.006;2023-11-22T07:16:30;1.00;;;1.00;;
5521;SDS011;2783;48.730;8.006;2023-11-22T07:18:56;1.08;;;1.08;;
5521;SDS011;2783;48.730;8.006;2023-11-22T07:21:21;0.95;;;0.95;;
5521;SDS011;2783;48.730;8.006;2023-11-22T07:23:47;1.08;;;1.08;;
5521;SDS011;2783;48.730;8.006;2023-11-22T07:26:13;0.90;;;0.90;;
5521;SDS011;2783;48.730;8.006;2023-11-22T07:28:41;1.05;;;1.05;;
5521;SDS011;2783;48.730;8.006;2023-11-22T07:31:07;0.90;;;0.90;;
5521;SDS011;2783;48.730;8.006;2023-11-22T07:33:33;0.88;;;0.88;;
5521;SDS011;2783;48.730;8.006;2023-11-22T07:35:58;0.88;;;0.88;;
5521;SDS011;2783;48.730;8.006;2023-11-22T07:38:24;0.95;;;0.95;;
5521;SDS011;2783;48.730;8.006;2023-11-22T07:40:50;0.90;;;0.90;;
5521;SDS011;2783;48.730;8.006;2023-11-22T07:43:16;0.82;;;0.82;;
5521;SDS011;2783;48.730;8.006;2023-11-22T07:45:41;0.80;;;0.80;;
5521;SDS011;2783;48.730;8.006;2023-11-22T07:48:08;0.93;;;0.93;;
5521;SDS011;2783;48.730;8.006;2023-11-22T07:50:37;0.88;;;0.88;;
5521;SDS011;2783;48.730;8.006;2023-11-22T07:53:03;0.90;;;0.90;;
5521;SDS011;2783;48.730;8.006;2023-11-22T07:55:29;0.80;;;0.80;;
5521;SDS011;2783;48.730;8.006;2023-11-22T07:57:55;0.65;;;0.65;;
5521;SDS011;2783;48.730;8.006;2023-11-22T08:00:21;0.70;;;0.70;;
5521;SDS011;2783;48.730;8.006;2023-11-22T08:02:47;0.68;;;0.68;;
5521;SDS011;2783;48.730;8.006;2023-11-22T08:05:14;0.65;;;0.65;;
5521;SDS011;2783;48.730;8.006;2023-11-22T08:07:40;0.70;;;0.70;;
5521;SDS011;2783;48.730;8.006;2023-11-22T08:10:09;0.70;;;0.70;;
5521;SDS011;2783;48.730;8.006;2023-11-22T08:12:42;0.68;;;0.68;;
5521;SDS011;2783;48.730;8.006;2023-11-22T08:15:09;0.50;;;0.50;;
5521;SDS011;2783;48.730;8.006;2023-11-22T08:17:37;0.60;;;0.60;;
5521;SDS011;2783;48.730;8.006;2023-11-22T08:20:03;0.50;;;0.50;;
5521;SDS011;2783;48.730;8.006;2023-11-22T08:22:31;0.50;;;0.50;;
5521;SDS011;2783;48.730;8.006;2023-11-22T08:25:01;0.50;;;0.50;;
5521;SDS011;2783;48.730;8.006;2023-11-22T08:27:28;0.50;;;0.50;;
5521;SDS011;2783;48.730;8.006;2023-11-22T08:29:53;0.50;;;0.50;;
5521;SDS011;2783;48.730;8.006;2023-11-22T08:32:19;0.60;;;0.60;;
5521;SDS011;2783;48.730;8.006;2023-11-22T08:34:48;0.60;;;0.60;;
5521;SDS011;2783;48.730;8.006;2023-11-22T08:37:14;0.70;;;0.70;;
5521;SDS011;2783;48.730;8.006;2023-11-22T08:39:40;0.70;;;0.70;;
5521;SDS011;2783;48.730;8.006;2023-11-22T08:42:06;0.60;;;0.60;;
5521;SDS011;2783;48.730;8.006;2023-11-22T08:44:34;0.50;;;0.50;;
5521;SDS011;2783;48.730;8.006;2023-11-22T08:47:01;0.57;;;0.57;;
5521;SDS011;2783;48.730;8.006;2023-11-22T08:49:28;0.60;;;0.60;;
5521;SDS011;2783;48.730;8.006;2023-11-22T08:51:53;0.50;;;0.50;;
5521;SDS011;2783;48.730;8.006;2023-11-22T08:54:18;0.50;;;0.50;;
5521;SDS011;2783;48.730;8.006;2023-11-22T08:56:44;0.50;;;0.50;;
5521;SDS011;2783;48.730;8.006;2023-11-22T08:59:11;0.50;;;0.50;;
5521;SDS011;2783;48.730;8.006;2023-11-22T09:01:37;0.50;;;0.50;;
5521;SDS011;2783;48.730;8.006;2023-11-22T09:04:03;0.30;;;0.30;;
5521;SDS011;2783;48.730;8.006;2023-11-22T09:06:28;0.45;;;0.45;;
5521;SDS011;2783;48.730;8.006;2023-11-22T09:08:54;0.50;;;0.50;;
5521;SDS011;2783;48.730;8.006;2023-11-22T09:11:21;0.45;;;0.45;;
5521;SDS011;2783;48.730;8.006;2023-11-22T09:13:47;0.40;;;0.40;;
5521;SDS011;2783;48.730;8.006;2023-11-22T09:16:14;0.40;;;0.40;;
5521;SDS011;2783;48.730;8.006;2023-11-22T09:18:41;0.40;;;0.40;;
5521;SDS011;2783;48.730;8.006;2023-11-22T09:21:07;0.35;;;0.35;;
5521;SDS011;2783;48.730;8.006;2023-11-22T09:23:34;0.40;;;0.40;;
5521;SDS011;2783;48.730;8.006;2023-11-22T09:26:01;0.40;;;0.40;;
5521;SDS011;2783;48.730;8.006;2023-11-22T09:28:30;0.40;;;0.40;;
5521;SDS011;2783;48.730;8.006;2023-11-22T09:30:56;0.50;;;0.50;;
5521;SDS011;2783;48.730;8.006;2023-11-22T09:33:30;0.47;;;0.47;;
5521;SDS011;2783;48.730;8.006;2023-11-22T09:35:56;0.40;;;0.40;;
5521;SDS011;2783;48.730;8.006;2023-11-22T09:38:23;0.40;;;0.40;;
5521;SDS011;2783;48.730;8.006;2023-11-22T09:40:49;0.47;;;0.47;;
5521;SDS011;2783;48.730;8.006;2023-11-22T09:43:15;0.43;;;0.43;;
5521;SDS011;2783;48.730;8.006;2023-11-22T09:45:46;0.50;;;0.50;;
5521;SDS011;2783;48.730;8.006;2023-11-22T09:48:16;0.50;;;0.50;;
5521;SDS011;2783;48.730;8.006;2023-11-22T09:53:40;0.45;;;0.45;;
5521;SDS011;2783;48.730;8.006;2023-11-22T09:56:12;0.50;;;0.50;;
5521;SDS011;2783;48.730;8.006;2023-11-22T09:58:44;0.40;;;0.40;;
5521;SDS011;2783;48.730;8.006;2023-11-22T10:01:13;0.50;;;0.50;;
5521;SDS011;2783;48.730;8.006;2023-11-22T10:03:39;0.50;;;0.50;;
5521;SDS011;2783;48.730;8.006;2023-11-22T10:06:05;0.50;;;0.50;;
5521;SDS011;2783;48.730;8.006;2023-11-22T10:08:31;0.50;;;0.50;;
5521;SDS011;2783;48.730;8.006;2023-11-22T10:10:58;0.40;;;0.40;;
5521;SDS011;2783;48.730;8.006;2023-11-22T10:13:24;0.50;;;0.50;;
5521;SDS011;2783;48.730;8.006;2023-11-22T10:15:50;0.40;;;0.40;;
5521;SDS011;2783;48.730;8.006;2023-11-22T10:18:17;0.50;;;0.50;;
5521;SDS011;2783;48.730;8.006;2023-11-22T10:20:43;0.50;;;0.50;;
5521;SDS011;2783;48.730;8.006;2023-11-22T10:23:18;0.50;;;0.50;;
5521;SDS011;2783;48.730;8.006;2023-11-22T10:25:50;0.40;;;0.40;;
5521;SDS011;2783;48.730;8.006;2023-11-22T10:28:20;0.45;;;0.45;;
5521;SDS011;2783;48.730;8.006;2023-11-22T10:30:47;0.50;;;0.50;;
5521;SDS011;2783;48.730;8.006;2023-11-22T10:33:14;0.40;;;0.40;;
5521;SDS011;2783;48.730;8.006;2023-11-22T10:35:50;0.40;;;0.40;;
5521;SDS011;2783;48.730;8.006;2023-11-22T10:38:19;0.40;;;0.40;;
5521;SDS011;2783;48.730;8.006;2023-11-22T10:40:45;0.40;;;0.40;;
5521;SDS011;2783;48.730;8.006;2023-11-22T10:43:13;0.40;;;0.40;;
5521;SDS011;2783;48.730;8.006;2023-11-22T10:45:42;0.40;;;0.40;;
5521;SDS011;2783;48.730;8.006;2023-11-22T10:48:14;0.40;;;0.40;;
5521;SDS011;2783;48.730;8.006;2023-11-22T10:50:45;0.40;;;0.40;;
5521;SDS011;2783;48.730;8.006;2023-11-22T10:53:15;0.40;;;0.40;;
5521;SDS011;2783;48.730;8.006;2023-11-22T10:55:46;0.40;;;0.40;;
5521;SDS011;2783;48.730;8.006;2023-11-22T10:58:13;0.40;;;0.40;;
5521;SDS011;2783;48.730;8.006;2023-11-22T11:00:40;0.30;;;0.30;;
5521;SDS011;2783;48.730;8.006;2023-11-22T11:03:11;0.40;;;0.40;;
5521;SDS011;2783;48.730;8.006;2023-11-22T11:05:42;0.40;;;0.40;;
5521;SDS011;2783;48.730;8.006;2023-11-22T11:08:30;0.40;;;0.40;;
5521;SDS011;2783;48.730;8.006;2023-11-22T11:10:57;0.40;;;0.40;;
5521;SDS011;2783;48.730;8.006;2023-11-22T11:13:23;0.30;;;0.30;;
5521;SDS011;2783;48.730;8.006;2023-11-22T11:15:49;0.30;;;0.30;;
5521;SDS011;2783;48.730;8.006;2023-11-22T11:18:17;0.40;;;0.40;;
5521;SDS011;2783;48.730;8.006;2023-11-22T11:20:53;0.30;;;0.30;;
5521;SDS011;2783;48.730;8.006;2023-11-22T11:23:20;0.40;;;0.40;;
5521;SDS011;2783;48.730;8.006;2023-11-22T11:25:52;0.30;;;0.30;;
5521;SDS011;2783;48.730;8.006;2023-11-22T11:28:20;0.40;;;0.40;;
5521;SDS011;2783;48.730;8.006;2023-11-22T11:30:47;0.40;;;0.40;;
5521;SDS011;2783;48.730;8.006;2023-11-22T11:33:14;0.50;;;0.50;;
5521;SDS011;2783;48.730;8.006;2023-11-22T11:35:43;0.50;;;0.50;;
5521;SDS011;2783;48.730;8.006;2023-11-22T11:38:15;0.60;;;0.60;;
5521;SDS011;2783;48.730;8.006;2023-11-22T11:40:45;0.60;;;0.60;;
5521;SDS011;2783;48.730;8.006;2023-11-22T11:43:12;0.60;;;0.60;;
5521;SDS011;2783;48.730;8.006;2023-11-22T11:45:44;0.65;;;0.65;;
5521;SDS011;2783;48.730;8.006;2023-11-22T11:48:15;0.70;;;0.70;;
5521;SDS011;2783;48.730;8.006;2023-11-22T11:50:42;0.63;;;0.63;;
5521;SDS011;2783;48.730;8.006;2023-11-22T11:53:11;0.70;;;0.70;;
5521;SDS011;2783;48.730;8.006;2023-11-22T11:55:37;0.70;;;0.70;;
5521;SDS011;2783;48.730;8.006;2023-11-22T11:58:06;0.77;;;0.77;;
5521;SDS011;2783;48.730;8.006;2023-11-22T12:00:36;0.70;;;0.70;;
5521;SDS011;2783;48.730;8.006;2023-11-22T12:03:05;0.60;;;0.60;;
5521;SDS011;2783;48.730;8.006;2023-11-22T12:05:32;0.70;;;0.70;;
5521;SDS011;2783;48.730;8.006;2023-11-22T12:07:58;0.70;;;0.70;;
5521;SDS011;2783;48.730;8.006;2023-11-22T12:10:23;0.80;;;0.80;;
5521;SDS011;2783;48.730;8.006;2023-11-22T12:12:49;0.70;;;0.70;;
5521;SDS011;2783;48.730;8.006;2023-11-22T12:15:14;0.70;;;0.70;;
5521;SDS011;2783;48.730;8.006;2023-11-22T12:17:40;0.70;;;0.70;;
5521;SDS011;2783;48.730;8.006;2023-11-22T12:20:14;0.70;;;0.70;;
5521;SDS011;2783;48.730;8.006;2023-11-22T12:22:42;0.70;;;0.70;;
5521;SDS011;2783;48.730;8.006;2023-11-22T12:25:11;0.73;;;0.73;;
5521;SDS011;2783;48.730;8.006;2023-11-22T12:27:41;0.70;;;0.70;;
5521;SDS011;2783;48.730;8.006;2023-11-22T12:30:07;0.70;;;0.70;;
5521;SDS011;2783;48.730;8.006;2023-11-22T12:32:33;0.70;;;0.70;;
5521;SDS011;2783;48.730;8.006;2023-11-22T12:34:59;0.70;;;0.70;;
5521;SDS011;2783;48.730;8.006;2023-11-22T12:37:24;0.80;;;0.80;;
5521;SDS011;2783;48.730;8.006;2023-11-22T12:39:52;0.80;;;0.80;;
5521;SDS011;2783;48.730;8.006;2023-11-22T12:42:17;0.80;;;0.80;;
5521;SDS011;2783;48.730;8.006;2023-11-22T12:44:47;0.70;;;0.70;;
5521;SDS011;2783;48.730;8.006;2023-11-22T12:47:14;0.60;;;0.60;;
5521;SDS011;2783;48.730;8.006;2023-11-22T12:49:44;0.73;;;0.73;;
5521;SDS011;2783;48.730;8.006;2023-11-22T12:52:12;0.70;;;0.70;;
5521;SDS011;2783;48.730;8.006;2023-11-22T12:54:39;0.75;;;0.75;;
5521;SDS011;2783;48.730;8.006;2023-11-22T12:57:09;0.70;;;0.70;;
5521;SDS011;2783;48.730;8.006;2023-11-22T12:59:37;0.88;;;0.88;;
5521;SDS011;2783;48.730;8.006;2023-11-22T13:02:04;0.80;;;0.80;;
5521;SDS011;2783;48.730;8.006;2023-11-22T13:04:32;0.82;;;0.82;;
5521;SDS011;2783;48.730;8.006;2023-11-22T13:06:58;0.77;;;0.77;;
5521;SDS011;2783;48.730;8.006;2023-11-22T13:09:25;0.80;;;0.80;;
5521;SDS011;2783;48.730;8.006;2023-11-22T13:11:50;0.77;;;0.77;;
5521;SDS011;2783;48.730;8.006;2023-11-22T13:14:16;0.80;;;0.80;;
5521;SDS011;2783;48.730;8.006;2023-11-22T13:16:43;0.80;;;0.80;;
5521;SDS011;2783;48.730;8.006;2023-11-22T13:19:10;0.82;;;0.82;;
5521;SDS011;2783;48.730;8.006;2023-11-22T13:21:35;0.90;;;0.90;;
5521;SDS011;2783;48.730;8.006;2023-11-22T13:24:01;0.70;;;0.70;;
5521;SDS011;2783;48.730;8.006;2023-11-22T13:26:26;0.90;;;0.90;;
5521;SDS011;2783;48.730;8.006;2023-11-22T13:28:52;0.73;;;0.73;;
5521;SDS011;2783;48.730;8.006;2023-11-22T13:31:19;0.60;;;0.60;;
5521;SDS011;2783;48.730;8.006;2023-11-22T13:33:46;0.73;;;0.73;;
5521;SDS011;2783;48.730;8.006;2023-11-22T13:36:12;0.73;;;0.73;;
5521;SDS011;2783;48.730;8.006;2023-11-22T13:38:39;0.85;;;0.85;;
5521;SDS011;2783;48.730;8.006;2023-11-22T13:41:04;0.82;;;0.82;;
5521;SDS011;2783;48.730;8.006;2023-11-22T13:43:30;0.77;;;0.77;;
5521;SDS011;2783;48.730;8.006;2023-11-22T13:45:58;0.80;;;0.80;;
5521;SDS011;2783;48.730;8.006;2023-11-22T13:48:23;0.70;;;0.70;;
5521;SDS011;2783;48.730;8.006;2023-11-22T13:50:49;0.80;;;0.80;;
5521;SDS011;2783;48.730;8.006;2023-11-22T13:53:15;0.85;;;0.85;;
5521;SDS011;2783;48.730;8.006;2023-11-22T13:55:42;0.80;;;0.80;;
5521;SDS011;2783;48.730;8.006;2023-11-22T13:58:07;0.77;;;0.77;;
5521;SDS011;2783;48.730;8.006;2023-11-22T14:00:34;0.77;;;0.77;;
5521;SDS011;2783;48.730;8.006;2023-11-22T14:03:00;0.80;;;0.80;;
5521;SDS011;2783;48.730;8.006;2023-11-22T14:05:31;0.80;;;0.80;;
5521;SDS011;2783;48.730;8.006;2023-11-22T14:07:58;0.80;;;0.80;;
5521;SDS011;2783;48.730;8.006;2023-11-22T14:10:23;0.80;;;0.80;;
5521;SDS011;2783;48.730;8.006;2023-11-22T14:12:49;0.90;;;0.90;;
5521;SDS011;2783;48.730;8.006;2023-11-22T14:15:15;0.85;;;0.85;;
5521;SDS011;2783;48.730;8.006;2023-11-22T14:17:41;0.75;;;0.75;;
5521;SDS011;2783;48.730;8.006;2023-11-22T14:22:35;0.70;;;0.70;;
5521;SDS011;2783;48.730;8.006;2023-11-22T14:25:00;0.70;;;0.70;;
5521;SDS011;2783;48.730;8.006;2023-11-22T14:27:26;0.90;;;0.90;;
5521;SDS011;2783;48.730;8.006;2023-11-22T14:29:53;0.85;;;0.85;;
5521;SDS011;2783;48.730;8.006;2023-11-22T14:32:19;0.90;;;0.90;;
5521;SDS011;2783;48.730;8.006;2023-11-22T14:34:45;0.90;;;0.90;;
5521;SDS011;2783;48.730;8.006;2023-11-22T14:37:11;0.80;;;0.80;;
5521;SDS011;2783;48.730;8.006;2023-11-22T14:39:37;0.77;;;0.77;;
5521;SDS011;2783;48.730;8.006;2023-11-22T14:42:03;0.70;;;0.70;;
5521;SDS011;2783;48.730;8.006;2023-11-22T14:44:35;0.80;;;0.80;;
5521;SDS011;2783;48.730;8.006;2023-11-22T14:47:01;0.95;;;0.95;;
5521;SDS011;2783;48.730;8.006;2023-11-22T14:49:32;0.82;;;0.82;;
5521;SDS011;2783;48.730;8.006;2023-11-22T14:51:58;0.70;;;0.70;;
5521;SDS011;2783;48.730;8.006;2023-11-22T14:54:23;0.80;;;0.80;;
5521;SDS011;2783;48.730;8.006;2023-11-22T14:56:48;0.80;;;0.80;;
5521;SDS011;2783;48.730;8.006;2023-11-22T14:59:14;0.70;;;0.70;;
5521;SDS011;2783;48.730;8.006;2023-11-22T15:01:42;0.80;;;0.80;;
5521;SDS011;2783;48.730;8.006;2023-11-22T15:04:08;0.70;;;0.70;;
5521;SDS011;2783;48.730;8.006;2023-11-22T15:06:35;0.70;;;0.70;;
5521;SDS011;2783;48.730;8.006;2023-11-22T15:09:01;0.90;;;0.90;;
5521;SDS011;2783;48.730;8.006;2023-11-22T15:11:28;0.80;;;0.80;;
5521;SDS011;2783;48.730;8.006;2023-11-22T15:13:55;0.80;;;0.80;;
5521;SDS011;2783;48.730;8.006;2023-11-22T15:16:20;0.70;;;0.70;;